sensor_id;sensor_type;location;lat;lon;timestamp;P1;durP1;ratioP1;P2;durP2;ratioP2
71566;SDS011;59403;47.456;19.120;2024-02-26T00:01:32;21.50;;;12.43;;
71566;SDS011;59403;47.456;19.120;2024-02-26T00:03:59;22.00;;;12.97;;
71566;SDS011;59403;47.456;19.120;2024-02-26T00:06:27;22.48;;;12.10;;
71566;SDS011;59403;47.456;19.120;2024-02-26T00:08:55;21.75;;;12.82;;
71566;SDS011;59403;47.456;19.120;2024-02-26T00:11:22;21.27;;;11.65;;
71566;SDS011;59403;47.456;19.120;2024-02-26T00:13:48;18.35;;;11.70;;
71566;SDS011;59403;47.456;19.120;2024-02-26T00:16:15;22.50;;;12.50;;
71566;SDS011;59403;47.456;19.120;2024-02-26T00:18:42;22.30;;;12.23;;
71566;SDS011;59403;47.456;19.120;2024-02-26T00:21:08;21.60;;;11.75;;
71566;SDS011;59403;47.456;19.120;2024-02-26T00:23:35;22.15;;;11.88;;
71566;SDS011;59403;47.456;19.120;2024-02-26T00:26:03;21.30;;;11.20;;
71566;SDS011;59403;47.456;19.120;2024-02-26T00:28:29;21.03;;;11.90;;
71566;SDS011;59403;47.456;19.120;2024-02-26T00:30:56;18.65;;;11.12;;
71566;SDS011;59403;47.456;19.120;2024-02-26T00:33:22;18.80;;;10.70;;
71566;SDS011;59403;47.456;19.120;2024-02-26T00:35:49;19.77;;;12.00;;
71566;SDS011;59403;47.456;19.120;2024-02-26T00:38:16;18.17;;;10.55;;
71566;SDS011;59403;47.456;19.120;2024-02-26T00:40:42;21.83;;;11.47;;
71566;SDS011;59403;47.456;19.120;2024-02-26T00:43:10;20.20;;;11.12;;
71566;SDS011;59403;47.456;19.120;2024-02-26T00:45:37;19.33;;;11.07;;
71566;SDS011;59403;47.456;19.120;2024-02-26T00:48:04;18.55;;;11.02;;
71566;SDS011;59403;47.456;19.120;2024-02-26T00:50:32;21.20;;;12.25;;
71566;SDS011;59403;47.456;19.120;2024-02-26T00:52:59;20.80;;;11.57;;
71566;SDS011;59403;47.456;19.120;2024-02-26T00:55:25;18.90;;;11.63;;
71566;SDS011;59403;47.456;19.120;2024-02-26T00:57:52;20.83;;;12.32;;
71566;SDS011;59403;47.456;19.120;2024-02-26T01:00:20;21.00;;;11.50;;
71566;SDS011;59403;47.456;19.120;2024-02-26T01:02:47;18.92;;;11.45;;
71566;SDS011;59403;47.456;19.120;2024-02-26T01:05:14;19.80;;;12.53;;
71566;SDS011;59403;47.456;19.120;2024-02-26T01:07:41;20.92;;;12.07;;
71566;SDS011;59403;47.456;19.120;2024-02-26T01:10:08;21.00;;;13.38;;
71566;SDS011;59403;47.456;19.120;2024-02-26T01:12:36;20.33;;;11.68;;
71566;SDS011;59403;47.456;19.120;2024-02-26T01:15:02;21.62;;;12.45;;
71566;SDS011;59403;47.456;19.120;2024-02-26T01:17:31;21.47;;;12.33;;
71566;SDS011;59403;47.456;19.120;2024-02-26T01:19:58;20.88;;;12.18;;
71566;SDS011;59403;47.456;19.120;2024-02-26T01:22:24;21.73;;;12.07;;
71566;SDS011;59403;47.456;19.120;2024-02-26T01:24:51;19.40;;;11.60;;
71566;SDS011;59403;47.456;19.120;2024-02-26T01:27:18;20.15;;;11.95;;
71566;SDS011;59403;47.456;19.120;2024-02-26T01:29:44;20.30;;;12.10;;
71566;SDS011;59403;47.456;19.120;2024-02-26T01:32:11;21.50;;;12.55;;
71566;SDS011;59403;47.456;19.120;2024-02-26T01:34:39;21.95;;;12.55;;
71566;SDS011;59403;47.456;19.120;2024-02-26T01:37:06;20.42;;;12.02;;
71566;SDS011;59403;47.456;19.120;2024-02-26T01:39:32;21.52;;;12.45;;
71566;SDS011;59403;47.456;19.120;2024-02-26T01:41:59;22.83;;;12.37;;
71566;SDS011;59403;47.456;19.120;2024-02-26T01:44:26;22.17;;;12.35;;
71566;SDS011;59403;47.456;19.120;2024-02-26T01:46:53;20.50;;;12.48;;
71566;SDS011;59403;47.456;19.120;2024-02-26T01:49:20;18.42;;;12.13;;
71566;SDS011;59403;47.456;19.120;2024-02-26T01:51:48;19.77;;;11.68;;
71566;SDS011;59403;47.456;19.120;2024-02-26T01:54:15;19.60;;;11.10;;
71566;SDS011;59403;47.456;19.120;2024-02-26T01:56:42;19.02;;;11.63;;
71566;SDS011;59403;47.456;19.120;2024-02-26T01:59:08;20.90;;;12.27;;
71566;SDS011;59403;47.456;19.120;2024-02-26T02:04:12;20.67;;;11.77;;
71566;SDS011;59403;47.456;19.120;2024-02-26T02:06:39;19.67;;;12.23;;
71566;SDS011;59403;47.456;19.120;2024-02-26T02:09:10;21.58;;;12.15;;
71566;SDS011;59403;47.456;19.120;2024-02-26T02:11:37;18.23;;;11.50;;
71566;SDS011;59403;47.456;19.120;2024-02-26T02:14:04;19.42;;;11.60;;
71566;SDS011;59403;47.456;19.120;2024-02-26T02:16:31;25.27;;;12.45;;
71566;SDS011;59403;47.456;19.120;2024-02-26T02:18:58;21.63;;;12.73;;
71566;SDS011;59403;47.456;19.120;2024-02-26T02:21:26;18.95;;;11.70;;
71566;SDS011;59403;47.456;19.120;2024-02-26T02:23:53;19.67;;;11.95;;
71566;SDS011;59403;47.456;19.120;2024-02-26T02:26:19;21.67;;;11.93;;
71566;SDS011;59403;47.456;19.120;2024-02-26T02:28:47;23.42;;;12.25;;
71566;SDS011;59403;47.456;19.120;2024-02-26T02:31:14;20.00;;;11.73;;
71566;SDS011;59403;47.456;19.120;2024-02-26T02:33:41;20.02;;;11.90;;
71566;SDS011;59403;47.456;19.120;2024-02-26T02:36:09;21.05;;;11.90;;
71566;SDS011;59403;47.456;19.120;2024-02-26T02:38:38;23.38;;;12.18;;
71566;SDS011;59403;47.456;19.120;2024-02-26T02:41:14;18.80;;;11.43;;
71566;SDS011;59403;47.456;19.120;2024-02-26T02:43:40;17.97;;;11.80;;
71566;SDS011;59403;47.456;19.120;2024-02-26T02:46:07;21.10;;;11.60;;
71566;SDS011;59403;47.456;19.120;2024-02-26T02:48:34;19.62;;;11.52;;
71566;SDS011;59403;47.456;19.120;2024-02-26T02:51:00;20.30;;;11.30;;
71566;SDS011;59403;47.456;19.120;2024-02-26T02:53:27;18.77;;;11.20;;
71566;SDS011;59403;47.456;19.120;2024-02-26T02:55:55;18.83;;;11.73;;
71566;SDS011;59403;47.456;19.120;2024-02-26T02:58:21;18.25;;;11.52;;
71566;SDS011;59403;47.456;19.120;2024-02-26T03:00:48;19.85;;;11.98;;
71566;SDS011;59403;47.456;19.120;2024-02-26T03:03:14;19.95;;;11.70;;
71566;SDS011;59403;47.456;19.120;2024-02-26T03:05:41;19.50;;;11.90;;
71566;SDS011;59403;47.456;19.120;2024-02-26T03:08:08;19.50;;;11.17;;
71566;SDS011;59403;47.456;19.120;2024-02-26T03:10:35;18.25;;;11.82;;
71566;SDS011;59403;47.456;19.120;2024-02-26T03:13:03;19.75;;;12.00;;
71566;SDS011;59403;47.456;19.120;2024-02-26T03:15:30;19.17;;;12.07;;
71566;SDS011;59403;47.456;19.120;2024-02-26T03:17:57;20.62;;;11.98;;
71566;SDS011;59403;47.456;19.120;2024-02-26T03:20:24;17.80;;;11.27;;
71566;SDS011;59403;47.456;19.120;2024-02-26T03:22:50;20.48;;;11.88;;
71566;SDS011;59403;47.456;19.120;2024-02-26T03:25:17;16.90;;;10.80;;
71566;SDS011;59403;47.456;19.120;2024-02-26T03:27:43;19.58;;;11.63;;
71566;SDS011;59403;47.456;19.120;2024-02-26T03:30:13;18.27;;;11.55;;
71566;SDS011;59403;47.456;19.120;2024-02-26T03:32:40;18.57;;;11.10;;
71566;SDS011;59403;47.456;19.120;2024-02-26T03:35:07;18.67;;;11.45;;
71566;SDS011;59403;47.456;19.120;2024-02-26T03:37:34;21.90;;;12.60;;
71566;SDS011;59403;47.456;19.120;2024-02-26T03:40:00;17.67;;;11.12;;
71566;SDS011;59403;47.456;19.120;2024-02-26T03:42:28;17.77;;;11.23;;
71566;SDS011;59403;47.456;19.120;2024-02-26T03:44:54;17.00;;;11.10;;
71566;SDS011;59403;47.456;19.120;2024-02-26T03:47:23;18.27;;;11.20;;
71566;SDS011;59403;47.456;19.120;2024-02-26T03:49:49;19.90;;;12.00;;
71566;SDS011;59403;47.456;19.120;2024-02-26T03:52:16;18.48;;;12.07;;
71566;SDS011;59403;47.456;19.120;2024-02-26T03:54:42;19.15;;;11.90;;
71566;SDS011;59403;47.456;19.120;2024-02-26T03:57:09;18.87;;;10.90;;
71566;SDS011;59403;47.456;19.120;2024-02-26T03:59:36;18.05;;;11.75;;
71566;SDS011;59403;47.456;19.120;2024-02-26T04:02:02;16.60;;;10.85;;
71566;SDS011;59403;47.456;19.120;2024-02-26T04:04:33;20.75;;;11.85;;
71566;SDS011;59403;47.456;19.120;2024-02-26T04:07:00;18.65;;;11.50;;
71566;SDS011;59403;47.456;19.120;2024-02-26T04:09:26;18.63;;;12.07;;
71566;SDS011;59403;47.456;19.120;2024-02-26T04:11:53;19.87;;;11.73;;
71566;SDS011;59403;47.456;19.120;2024-02-26T04:14:20;19.23;;;11.63;;
71566;SDS011;59403;47.456;19.120;2024-02-26T04:16:46;19.45;;;11.90;;
71566;SDS011;59403;47.456;19.120;2024-02-26T04:19:16;18.40;;;11.45;;
71566;SDS011;59403;47.456;19.120;2024-02-26T04:21:44;18.17;;;11.47;;
71566;SDS011;59403;47.456;19.120;2024-02-26T04:24:12;18.33;;;11.05;;
71566;SDS011;59403;47.456;19.120;2024-02-26T04:26:38;18.62;;;11.30;;
71566;SDS011;59403;47.456;19.120;2024-02-26T04:29:05;16.52;;;10.40;;
71566;SDS011;59403;47.456;19.120;2024-02-26T04:31:32;17.48;;;10.60;;
71566;SDS011;59403;47.456;19.120;2024-02-26T04:33:58;17.03;;;10.33;;
71566;SDS011;59403;47.456;19.120;2024-02-26T04:36:25;17.33;;;10.90;;
71566;SDS011;59403;47.456;19.120;2024-02-26T04:38:53;17.30;;;10.20;;
71566;SDS011;59403;47.456;19.120;2024-02-26T04:41:20;18.73;;;10.57;;
71566;SDS011;59403;47.456;19.120;2024-02-26T04:43:47;18.08;;;10.80;;
71566;SDS011;59403;47.456;19.120;2024-02-26T04:46:14;18.33;;;9.87;;
71566;SDS011;59403;47.456;19.120;2024-02-26T04:48:40;16.98;;;10.60;;
71566;SDS011;59403;47.456;19.120;2024-02-26T04:51:07;17.33;;;10.60;;
71566;SDS011;59403;47.456;19.120;2024-02-26T04:53:34;17.62;;;9.88;;
71566;SDS011;59403;47.456;19.120;2024-02-26T04:56:02;18.05;;;10.25;;
71566;SDS011;59403;47.456;19.120;2024-02-26T04:58:29;18.70;;;10.73;;
71566;SDS011;59403;47.456;19.120;2024-02-26T05:00:56;19.98;;;10.20;;
71566;SDS011;59403;47.456;19.120;2024-02-26T05:03:22;15.20;;;9.27;;
71566;SDS011;59403;47.456;19.120;2024-02-26T05:05:49;19.27;;;10.80;;
71566;SDS011;59403;47.456;19.120;2024-02-26T05:08:15;20.80;;;11.25;;
71566;SDS011;59403;47.456;19.120;2024-02-26T05:10:42;20.50;;;11.80;;
71566;SDS011;59403;47.456;19.120;2024-02-26T05:13:12;22.65;;;11.57;;
71566;SDS011;59403;47.456;19.120;2024-02-26T05:15:40;21.52;;;12.35;;
71566;SDS011;59403;47.456;19.120;2024-02-26T05:18:07;26.25;;;12.85;;
71566;SDS011;59403;47.456;19.120;2024-02-26T05:20:33;26.92;;;13.62;;
71566;SDS011;59403;47.456;19.120;2024-02-26T05:23:01;28.03;;;12.90;;
71566;SDS011;59403;47.456;19.120;2024-02-26T05:25:28;22.35;;;12.88;;
71566;SDS011;59403;47.456;19.120;2024-02-26T05:27:55;24.30;;;12.75;;
71566;SDS011;59403;47.456;19.120;2024-02-26T05:30:23;25.80;;;12.95;;
71566;SDS011;59403;47.456;19.120;2024-02-26T05:32:52;25.60;;;12.73;;
71566;SDS011;59403;47.456;19.120;2024-02-26T05:35:19;26.87;;;13.37;;
71566;SDS011;59403;47.456;19.120;2024-02-26T05:37:46;24.65;;;13.07;;
71566;SDS011;59403;47.456;19.120;2024-02-26T05:40:13;26.58;;;13.73;;
71566;SDS011;59403;47.456;19.120;2024-02-26T05:42:39;24.30;;;12.55;;
71566;SDS011;59403;47.456;19.120;2024-02-26T05:45:06;25.52;;;12.48;;
71566;SDS011;59403;47.456;19.120;2024-02-26T05:47:35;24.37;;;12.73;;
71566;SDS011;59403;47.456;19.120;2024-02-26T05:50:07;24.75;;;12.48;;
71566;SDS011;59403;47.456;19.120;2024-02-26T05:52:35;23.52;;;12.18;;
71566;SDS011;59403;47.456;19.120;2024-02-26T05:55:02;23.90;;;12.65;;
71566;SDS011;59403;47.456;19.120;2024-02-26T05:57:29;25.92;;;13.88;;
71566;SDS011;59403;47.456;19.120;2024-02-26T05:59:56;27.50;;;13.00;;
71566;SDS011;59403;47.456;19.120;2024-02-26T06:02:25;26.05;;;13.05;;
71566;SDS011;59403;47.456;19.120;2024-02-26T06:04:56;26.55;;;13.57;;
71566;SDS011;59403;47.456;19.120;2024-02-26T06:07:22;28.20;;;12.50;;
71566;SDS011;59403;47.456;19.120;2024-02-26T06:09:49;24.02;;;12.63;;
71566;SDS011;59403;47.456;19.120;2024-02-26T06:12:16;25.13;;;12.27;;
71566;SDS011;59403;47.456;19.120;2024-02-26T06:14:42;25.65;;;12.07;;
71566;SDS011;59403;47.456;19.120;2024-02-26T06:17:09;24.17;;;13.38;;
71566;SDS011;59403;47.456;19.120;2024-02-26T06:19:36;24.02;;;12.07;;
71566;SDS011;59403;47.456;19.120;2024-02-26T06:22:04;24.83;;;13.00;;
71566;SDS011;59403;47.456;19.120;2024-02-26T06:24:30;24.30;;;13.00;;
71566;SDS011;59403;47.456;19.120;2024-02-26T06:26:57;24.15;;;13.07;;
71566;SDS011;59403;47.456;19.120;2024-02-26T06:29:24;27.00;;;13.23;;
71566;SDS011;59403;47.456;19.120;2024-02-26T06:31:50;25.37;;;13.15;;
71566;SDS011;59403;47.456;19.120;2024-02-26T06:34:17;25.73;;;12.15;;
71566;SDS011;59403;47.456;19.120;2024-02-26T06:36:46;24.17;;;13.10;;
71566;SDS011;59403;47.456;19.120;2024-02-26T06:39:14;24.33;;;12.98;;
71566;SDS011;59403;47.456;19.120;2024-02-26T06:41:43;24.00;;;12.85;;
71566;SDS011;59403;47.456;19.120;2024-02-26T06:44:11;27.50;;;12.52;;
71566;SDS011;59403;47.456;19.120;2024-02-26T06:46:42;21.37;;;11.77;;
71566;SDS011;59403;47.456;19.120;2024-02-26T06:49:08;24.17;;;12.80;;
71566;SDS011;59403;47.456;19.120;2024-02-26T06:51:35;24.60;;;12.95;;
71566;SDS011;59403;47.456;19.120;2024-02-26T06:54:01;25.60;;;13.13;;
71566;SDS011;59403;47.456;19.120;2024-02-26T06:56:29;21.83;;;12.07;;
71566;SDS011;59403;47.456;19.120;2024-02-26T06:58:56;25.48;;;12.82;;
71566;SDS011;59403;47.456;19.120;2024-02-26T07:01:23;25.07;;;13.67;;
71566;SDS011;59403;47.456;19.120;2024-02-26T07:03:50;23.70;;;12.80;;
71566;SDS011;59403;47.456;19.120;2024-02-26T07:06:16;21.58;;;12.73;;
71566;SDS011;59403;47.456;19.120;2024-02-26T07:08:43;26.73;;;13.93;;
71566;SDS011;59403;47.456;19.120;2024-02-26T07:11:10;27.90;;;13.95;;
71566;SDS011;59403;47.456;19.120;2024-02-26T07:13:38;26.50;;;13.90;;
71566;SDS011;59403;47.456;19.120;2024-02-26T07:16:05;24.80;;;13.93;;
71566;SDS011;59403;47.456;19.120;2024-02-26T07:18:32;23.70;;;13.35;;
71566;SDS011;59403;47.456;19.120;2024-02-26T07:21:01;28.58;;;14.55;;
71566;SDS011;59403;47.456;19.120;2024-02-26T07:23:27;25.23;;;14.30;;
71566;SDS011;59403;47.456;19.120;2024-02-26T07:25:54;26.73;;;14.73;;
71566;SDS011;59403;47.456;19.120;2024-02-26T07:28:21;27.98;;;14.68;;
71566;SDS011;59403;47.456;19.120;2024-02-26T07:30:49;27.87;;;15.02;;
71566;SDS011;59403;47.456;19.120;2024-02-26T07:33:15;26.45;;;14.75;;
71566;SDS011;59403;47.456;19.120;2024-02-26T07:35:42;27.60;;;16.37;;
71566;SDS011;59403;47.456;19.120;2024-02-26T07:38:09;25.63;;;14.70;;
71566;SDS011;59403;47.456;19.120;2024-02-26T07:40:34;26.65;;;14.80;;
71566;SDS011;59403;47.456;19.120;2024-02-26T07:43:01;27.20;;;15.75;;
71566;SDS011;59403;47.456;19.120;2024-02-26T07:45:28;28.02;;;15.57;;
71566;SDS011;59403;47.456;19.120;2024-02-26T07:47:56;28.60;;;14.87;;
71566;SDS011;59403;47.456;19.120;2024-02-26T07:50:22;24.92;;;14.98;;
71566;SDS011;59403;47.456;19.120;2024-02-26T07:52:49;27.23;;;14.60;;
71566;SDS011;59403;47.456;19.120;2024-02-26T07:55:18;28.35;;;15.80;;
71566;SDS011;59403;47.456;19.120;2024-02-26T07:57:45;28.70;;;16.97;;
71566;SDS011;59403;47.456;19.120;2024-02-26T08:00:12;29.10;;;16.67;;
71566;SDS011;59403;47.456;19.120;2024-02-26T08:02:41;29.20;;;16.42;;
71566;SDS011;59403;47.456;19.120;2024-02-26T08:05:10;30.55;;;16.85;;
71566;SDS011;59403;47.456;19.120;2024-02-26T08:07:36;30.17;;;17.67;;
71566;SDS011;59403;47.456;19.120;2024-02-26T08:10:03;30.90;;;18.00;;
71566;SDS011;59403;47.456;19.120;2024-02-26T08:12:30;33.72;;;18.77;;
71566;SDS011;59403;47.456;19.120;2024-02-26T08:14:56;34.13;;;19.48;;
71566;SDS011;59403;47.456;19.120;2024-02-26T08:17:24;36.30;;;19.40;;
71566;SDS011;59403;47.456;19.120;2024-02-26T08:19:50;32.63;;;20.05;;
71566;SDS011;59403;47.456;19.120;2024-02-26T08:22:18;41.57;;;22.17;;
71566;SDS011;59403;47.456;19.120;2024-02-26T08:24:45;34.50;;;20.88;;
71566;SDS011;59403;47.456;19.120;2024-02-26T08:27:12;34.05;;;19.90;;
71566;SDS011;59403;47.456;19.120;2024-02-26T08:29:39;36.28;;;19.87;;
71566;SDS011;59403;47.456;19.120;2024-02-26T08:32:06;36.97;;;21.60;;
71566;SDS011;59403;47.456;19.120;2024-02-26T08:34:33;37.33;;;21.80;;
71566;SDS011;59403;47.456;19.120;2024-02-26T08:36:59;32.58;;;19.92;;
71566;SDS011;59403;47.456;19.120;2024-02-26T08:39:27;36.30;;;21.73;;
71566;SDS011;59403;47.456;19.120;2024-02-26T08:41:54;35.97;;;21.25;;
71566;SDS011;59403;47.456;19.120;2024-02-26T08:44:21;34.20;;;20.77;;
71566;SDS011;59403;47.456;19.120;2024-02-26T08:46:47;38.13;;;21.97;;
71566;SDS011;59403;47.456;19.120;2024-02-26T08:49:15;36.58;;;21.95;;
71566;SDS011;59403;47.456;19.120;2024-02-26T08:51:42;34.15;;;20.98;;
71566;SDS011;59403;47.456;19.120;2024-02-26T08:54:09;35.22;;;21.20;;
71566;SDS011;59403;47.456;19.120;2024-02-26T08:56:37;37.17;;;21.80;;
71566;SDS011;59403;47.456;19.120;2024-02-26T08:59:03;34.27;;;21.33;;
71566;SDS011;59403;47.456;19.120;2024-02-26T09:03:57;38.10;;;23.60;;
71566;SDS011;59403;47.456;19.120;2024-02-26T09:06:24;38.45;;;23.70;;
71566;SDS011;59403;47.456;19.120;2024-02-26T09:08:51;45.28;;;28.60;;
71566;SDS011;59403;47.456;19.120;2024-02-26T09:11:18;38.50;;;24.10;;
71566;SDS011;59403;47.456;19.120;2024-02-26T09:13:46;37.03;;;22.08;;
71566;SDS011;59403;47.456;19.120;2024-02-26T09:16:12;35.25;;;22.15;;
71566;SDS011;59403;47.456;19.120;2024-02-26T09:18:39;40.12;;;23.95;;
71566;SDS011;59403;47.456;19.120;2024-02-26T09:21:06;37.22;;;23.10;;
71566;SDS011;59403;47.456;19.120;2024-02-26T09:23:33;37.60;;;22.77;;
71566;SDS011;59403;47.456;19.120;2024-02-26T09:26:02;37.20;;;21.92;;
71566;SDS011;59403;47.456;19.120;2024-02-26T09:28:31;35.67;;;22.25;;
71566;SDS011;59403;47.456;19.120;2024-02-26T09:31:03;36.47;;;22.27;;
71566;SDS011;59403;47.456;19.120;2024-02-26T09:33:31;35.47;;;22.10;;
71566;SDS011;59403;47.456;19.120;2024-02-26T09:35:57;34.70;;;21.40;;
71566;SDS011;59403;47.456;19.120;2024-02-26T09:38:25;37.33;;;22.00;;
71566;SDS011;59403;47.456;19.120;2024-02-26T09:40:52;33.90;;;21.52;;
71566;SDS011;59403;47.456;19.120;2024-02-26T09:43:21;36.03;;;22.77;;
71566;SDS011;59403;47.456;19.120;2024-02-26T09:45:49;35.55;;;20.48;;
71566;SDS011;59403;47.456;19.120;2024-02-26T09:48:17;31.83;;;19.87;;
71566;SDS011;59403;47.456;19.120;2024-02-26T09:50:44;34.95;;;20.75;;
71566;SDS011;59403;47.456;19.120;2024-02-26T09:53:11;33.72;;;20.73;;
71566;SDS011;59403;47.456;19.120;2024-02-26T09:55:39;32.90;;;20.30;;
71566;SDS011;59403;47.456;19.120;2024-02-26T09:58:06;33.25;;;20.10;;
71566;SDS011;59403;47.456;19.120;2024-02-26T10:00:33;31.40;;;19.60;;
71566;SDS011;59403;47.456;19.120;2024-02-26T10:03:04;31.10;;;20.67;;
71566;SDS011;59403;47.456;19.120;2024-02-26T10:05:33;31.48;;;19.83;;
71566;SDS011;59403;47.456;19.120;2024-02-26T10:08:01;33.03;;;20.60;;
71566;SDS011;59403;47.456;19.120;2024-02-26T10:10:28;31.45;;;19.50;;
71566;SDS011;59403;47.456;19.120;2024-02-26T10:12:56;35.60;;;20.10;;
71566;SDS011;59403;47.456;19.120;2024-02-26T10:15:23;31.87;;;19.92;;
71566;SDS011;59403;47.456;19.120;2024-02-26T10:17:50;28.50;;;18.85;;
71566;SDS011;59403;47.456;19.120;2024-02-26T10:20:17;30.98;;;19.92;;
71566;SDS011;59403;47.456;19.120;2024-02-26T10:22:49;31.15;;;18.80;;
71566;SDS011;59403;47.456;19.120;2024-02-26T10:25:17;30.57;;;18.73;;
71566;SDS011;59403;47.456;19.120;2024-02-26T10:27:44;28.90;;;18.85;;
71566;SDS011;59403;47.456;19.120;2024-02-26T10:30:18;29.60;;;18.30;;
71566;SDS011;59403;47.456;19.120;2024-02-26T10:32:46;31.20;;;18.02;;
71566;SDS011;59403;47.456;19.120;2024-02-26T10:35:13;31.48;;;19.55;;
71566;SDS011;59403;47.456;19.120;2024-02-26T10:37:40;32.50;;;20.02;;
71566;SDS011;59403;47.456;19.120;2024-02-26T10:40:10;33.00;;;18.77;;
71566;SDS011;59403;47.456;19.120;2024-02-26T10:42:38;31.83;;;18.75;;
71566;SDS011;59403;47.456;19.120;2024-02-26T10:45:05;28.45;;;18.73;;
71566;SDS011;59403;47.456;19.120;2024-02-26T10:47:32;27.27;;;19.05;;
71566;SDS011;59403;47.456;19.120;2024-02-26T10:49:59;24.33;;;16.12;;
71566;SDS011;59403;47.456;19.120;2024-02-26T10:52:27;25.33;;;15.63;;
71566;SDS011;59403;47.456;19.120;2024-02-26T10:54:58;24.92;;;15.73;;
71566;SDS011;59403;47.456;19.120;2024-02-26T10:57:29;20.75;;;14.65;;
71566;SDS011;59403;47.456;19.120;2024-02-26T10:59:59;21.98;;;15.57;;
71566;SDS011;59403;47.456;19.120;2024-02-26T11:02:29;22.40;;;14.70;;
71566;SDS011;59403;47.456;19.120;2024-02-26T11:04:58;21.30;;;13.75;;
71566;SDS011;59403;47.456;19.120;2024-02-26T11:07:26;19.62;;;13.20;;
71566;SDS011;59403;47.456;19.120;2024-02-26T11:09:54;17.52;;;11.98;;
71566;SDS011;59403;47.456;19.120;2024-02-26T11:12:21;17.35;;;11.32;;
71566;SDS011;59403;47.456;19.120;2024-02-26T11:14:50;15.02;;;10.20;;
71566;SDS011;59403;47.456;19.120;2024-02-26T11:17:20;18.50;;;11.85;;
71566;SDS011;59403;47.456;19.120;2024-02-26T11:19:48;16.73;;;11.85;;
71566;SDS011;59403;47.456;19.120;2024-02-26T11:22:16;18.12;;;11.88;;
71566;SDS011;59403;47.456;19.120;2024-02-26T11:24:43;18.50;;;13.07;;
71566;SDS011;59403;47.456;19.120;2024-02-26T11:27:10;21.00;;;13.43;;
71566;SDS011;59403;47.456;19.120;2024-02-26T11:29:38;23.17;;;13.60;;
71566;SDS011;59403;47.456;19.120;2024-02-26T11:32:10;20.88;;;12.70;;
71566;SDS011;59403;47.456;19.120;2024-02-26T11:34:37;22.65;;;14.80;;
71566;SDS011;59403;47.456;19.120;2024-02-26T11:37:11;21.87;;;14.60;;
71566;SDS011;59403;47.456;19.120;2024-02-26T11:39:39;15.63;;;10.88;;
71566;SDS011;59403;47.456;19.120;2024-02-26T11:42:07;13.48;;;9.30;;
71566;SDS011;59403;47.456;19.120;2024-02-26T11:44:36;15.00;;;10.25;;
71566;SDS011;59403;47.456;19.120;2024-02-26T11:47:13;14.73;;;10.32;;
71566;SDS011;59403;47.456;19.120;2024-02-26T11:49:44;12.23;;;9.50;;
71566;SDS011;59403;47.456;19.120;2024-02-26T11:52:12;13.52;;;8.63;;
71566;SDS011;59403;47.456;19.120;2024-02-26T11:54:43;12.75;;;8.18;;
71566;SDS011;59403;47.456;19.120;2024-02-26T11:57:20;11.55;;;8.20;;
71566;SDS011;59403;47.456;19.120;2024-02-26T11:59:48;11.10;;;7.57;;
71566;SDS011;59403;47.456;19.120;2024-02-26T12:05:06;13.50;;;9.07;;
71566;SDS011;59403;47.456;19.120;2024-02-26T12:07:34;13.18;;;8.73;;
71566;SDS011;59403;47.456;19.120;2024-02-26T12:10:14;12.30;;;8.98;;
71566;SDS011;59403;47.456;19.120;2024-02-26T12:12:42;14.05;;;7.55;;
71566;SDS011;59403;47.456;19.120;2024-02-26T12:15:09;12.82;;;7.37;;
71566;SDS011;59403;47.456;19.120;2024-02-26T12:17:39;10.98;;;7.35;;
71566;SDS011;59403;47.456;19.120;2024-02-26T12:20:10;10.48;;;7.32;;
71566;SDS011;59403;47.456;19.120;2024-02-26T12:22:39;11.40;;;7.55;;
71566;SDS011;59403;47.456;19.120;2024-02-26T12:25:08;11.30;;;7.32;;
71566;SDS011;59403;47.456;19.120;2024-02-26T12:27:35;11.05;;;7.90;;
71566;SDS011;59403;47.456;19.120;2024-02-26T12:30:02;11.35;;;8.32;;
71566;SDS011;59403;47.456;19.120;2024-02-26T12:32:29;11.55;;;8.50;;
71566;SDS011;59403;47.456;19.120;2024-02-26T12:34:58;10.07;;;7.35;;
71566;SDS011;59403;47.456;19.120;2024-02-26T12:37:25;10.63;;;8.07;;
71566;SDS011;59403;47.456;19.120;2024-02-26T12:39:52;11.73;;;8.73;;
71566;SDS011;59403;47.456;19.120;2024-02-26T12:42:17;11.83;;;8.47;;
71566;SDS011;59403;47.456;19.120;2024-02-26T12:44:44;14.48;;;7.90;;
71566;SDS011;59403;47.456;19.120;2024-02-26T12:47:11;11.12;;;8.57;;
71566;SDS011;59403;47.456;19.120;2024-02-26T12:49:41;10.82;;;7.95;;
71566;SDS011;59403;47.456;19.120;2024-02-26T12:52:10;10.50;;;6.97;;
71566;SDS011;59403;47.456;19.120;2024-02-26T12:54:37;10.80;;;7.37;;
71566;SDS011;59403;47.456;19.120;2024-02-26T12:57:04;10.38;;;7.80;;
71566;SDS011;59403;47.456;19.120;2024-02-26T12:59:32;10.00;;;6.95;;
71566;SDS011;59403;47.456;19.120;2024-02-26T13:02:00;9.90;;;6.55;;
71566;SDS011;59403;47.456;19.120;2024-02-26T13:04:28;10.03;;;6.60;;
71566;SDS011;59403;47.456;19.120;2024-02-26T13:06:55;8.70;;;6.30;;
71566;SDS011;59403;47.456;19.120;2024-02-26T13:09:27;8.57;;;6.30;;
71566;SDS011;59403;47.456;19.120;2024-02-26T13:11:53;6.32;;;4.62;;
71566;SDS011;59403;47.456;19.120;2024-02-26T13:14:20;5.10;;;4.25;;
71566;SDS011;59403;47.456;19.120;2024-02-26T13:16:54;8.07;;;4.10;;
71566;SDS011;59403;47.456;19.120;2024-02-26T13:19:21;6.18;;;3.60;;
71566;SDS011;59403;47.456;19.120;2024-02-26T13:21:47;5.85;;;3.55;;
71566;SDS011;59403;47.456;19.120;2024-02-26T13:24:14;4.53;;;3.17;;
71566;SDS011;59403;47.456;19.120;2024-02-26T13:26:42;5.30;;;3.55;;
71566;SDS011;59403;47.456;19.120;2024-02-26T13:29:09;8.17;;;3.80;;
71566;SDS011;59403;47.456;19.120;2024-02-26T13:31:43;3.95;;;2.92;;
71566;SDS011;59403;47.456;19.120;2024-02-26T13:34:10;9.10;;;3.70;;
71566;SDS011;59403;47.456;19.120;2024-02-26T13:36:36;6.37;;;3.85;;
71566;SDS011;59403;47.456;19.120;2024-02-26T13:39:03;6.37;;;5.30;;
71566;SDS011;59403;47.456;19.120;2024-02-26T13:41:30;9.73;;;6.27;;
71566;SDS011;59403;47.456;19.120;2024-02-26T13:43:58;9.25;;;6.70;;
71566;SDS011;59403;47.456;19.120;2024-02-26T13:46:25;10.35;;;7.37;;
71566;SDS011;59403;47.456;19.120;2024-02-26T13:48:52;9.15;;;6.95;;
71566;SDS011;59403;47.456;19.120;2024-02-26T13:51:19;8.82;;;7.15;;
71566;SDS011;59403;47.456;19.120;2024-02-26T13:53:46;11.03;;;7.03;;
71566;SDS011;59403;47.456;19.120;2024-02-26T13:56:13;10.20;;;7.43;;
71566;SDS011;59403;47.456;19.120;2024-02-26T13:58:39;9.50;;;7.57;;
71566;SDS011;59403;47.456;19.120;2024-02-26T14:01:07;10.40;;;7.60;;
71566;SDS011;59403;47.456;19.120;2024-02-26T14:03:34;9.43;;;8.00;;
71566;SDS011;59403;47.456;19.120;2024-02-26T14:06:01;9.17;;;7.40;;
71566;SDS011;59403;47.456;19.120;2024-02-26T14:08:27;9.98;;;7.43;;
71566;SDS011;59403;47.456;19.120;2024-02-26T14:10:54;10.77;;;7.47;;
71566;SDS011;59403;47.456;19.120;2024-02-26T14:13:20;11.57;;;8.13;;
71566;SDS011;59403;47.456;19.120;2024-02-26T14:15:47;9.27;;;8.13;;
71566;SDS011;59403;47.456;19.120;2024-02-26T14:18:21;10.70;;;7.70;;
71566;SDS011;59403;47.456;19.120;2024-02-26T14:20:47;9.95;;;7.97;;